createdAt,value
2022-12-19T00:02:00.390Z,45.53
2022-12-19T00:04:46.271Z,43.90
2022-12-19T00:07:31.740Z,43.15
2022-12-19T00:10:17.292Z,45.55
2022-12-19T00:13:03.009Z,44.20
2022-12-19T00:15:50.859Z,44.88
2022-12-19T00:18:36.546Z,45.35
2022-12-19T00:21:25.340Z,41.33
2022-12-19T00:24:21.063Z,43.42
2022-12-19T00:27:08.153Z,45.25
2022-12-19T00:29:53.557Z,46.25
2022-12-19T00:32:39.472Z,42.47
2022-12-19T00:35:26.841Z,42.33
2022-12-19T00:38:14.754Z,40.13
2022-12-19T00:41:21.653Z,44.90
2022-12-19T00:44:11.069Z,36.95
2022-12-19T00:46:56.283Z,37.95
2022-12-19T00:49:41.986Z,39.55
2022-12-19T00:52:28.658Z,36.80
2022-12-19T00:55:18.791Z,37.70
2022-12-19T00:58:05.101Z,34.17
2022-12-19T01:00:50.806Z,34.55
2022-12-19T01:03:36.341Z,35.20
2022-12-19T01:06:21.506Z,38.08
2022-12-19T01:09:07.700Z,35.50
2022-12-19T01:12:11.475Z,36.50
2022-12-19T01:15:04.062Z,33.03
2022-12-19T01:17:52.877Z,38.92
2022-12-19T01:20:43.028Z,34.42
2022-12-19T01:23:28.785Z,35.20
2022-12-19T01:26:14.589Z,32.92
2022-12-19T01:28:59.670Z,28.98
2022-12-19T01:31:46.596Z,30.90
2022-12-19T01:34:32.008Z,33.65
2022-12-19T01:37:18.361Z,31.70
2022-12-19T01:40:03.858Z,32.90
2022-12-19T01:42:51.851Z,29.25
2022-12-19T01:48:44.799Z,32.00
2022-12-19T01:51:39.615Z,34.75
2022-12-19T01:54:30.001Z,33.00
2022-12-19T01:57:20.262Z,35.65
2022-12-19T02:00:09.808Z,35.80
2022-12-19T02:03:06.095Z,36.47
2022-12-19T02:05:54.395Z,37.20
2022-12-19T02:08:42.143Z,34.08
2022-12-19T02:11:27.663Z,33.28
2022-12-19T02:14:13.276Z,35.92
2022-12-19T02:17:17.664Z,32.60
2022-12-19T02:20:34.750Z,31.65
2022-12-19T02:23:27.663Z,31.65
2022-12-19T02:26:22.822Z,33.22
2022-12-19T02:29:27.613Z,32.00
2022-12-19T02:32:41.516Z,33.92
2022-12-19T02:35:33.299Z,34.78
2022-12-19T02:38:48.260Z,29.88
2022-12-19T02:41:45.896Z,32.83
2022-12-19T02:44:48.683Z,29.60
2022-12-19T02:47:36.486Z,27.50
2022-12-19T02:50:22.877Z,26.55
2022-12-19T02:53:12.576Z,25.65
2022-12-19T02:56:28.644Z,27.75
2022-12-19T02:59:34.719Z,22.73
2022-12-19T03:02:59.143Z,26.77
2022-12-19T03:06:07.307Z,23.48
2022-12-19T03:09:01.083Z,23.67
2022-12-19T03:11:51.811Z,24.52
2022-12-19T03:14:37.725Z,25.15
2022-12-19T03:17:23.546Z,23.75
2022-12-19T03:20:21.346Z,23.35
2022-12-19T03:23:09.890Z,23.30
2022-12-19T03:26:00.734Z,24.08
2022-12-19T03:28:49.693Z,22.77
2022-12-19T03:31:38.546Z,23.90
2022-12-19T03:34:38.356Z,22.92
2022-12-19T03:37:27.566Z,24.23
2022-12-19T03:40:20.546Z,21.50
2022-12-19T03:43:08.991Z,24.08
2022-12-19T03:46:14.269Z,21.05
2022-12-19T03:48:59.718Z,21.23
2022-12-19T03:52:06.016Z,23.70
2022-12-19T03:55:12.398Z,20.55
2022-12-19T03:58:07.089Z,20.63
2022-12-19T04:00:53.536Z,23.85
2022-12-19T04:03:38.713Z,22.85
2022-12-19T04:06:24.763Z,24.70
2022-12-19T04:09:10.929Z,23.90
2022-12-19T04:12:03.027Z,23.88
2022-12-19T04:14:49.853Z,23.52
2022-12-19T04:17:44.704Z,24.63
2022-12-19T04:20:31.423Z,25.05
2022-12-19T04:23:50.901Z,24.45
2022-12-19T04:26:38.667Z,23.75
2022-12-19T04:29:31.977Z,27.48
2022-12-19T04:32:21.145Z,25.33
2022-12-19T04:35:06.812Z,24.15
2022-12-19T04:37:52.589Z,26.75
2022-12-19T04:40:41.513Z,27.58
2022-12-19T04:43:27.355Z,29.25
2022-12-19T04:46:15.792Z,25.38
2022-12-19T04:49:01.728Z,27.23
2022-12-19T04:51:47.423Z,24.45
2022-12-19T04:54:35.822Z,27.23
2022-12-19T04:57:21.544Z,28.48
2022-12-19T05:00:08.707Z,28.60
2022-12-19T05:02:54.374Z,28.90
2022-12-19T05:05:39.892Z,31.15
2022-12-19T05:08:25.342Z,29.73
2022-12-19T05:11:19.506Z,27.63
2022-12-19T05:14:08.847Z,31.65
2022-12-19T05:17:00.528Z,31.30
2022-12-19T05:19:47.477Z,29.55
2022-12-19T05:22:37.142Z,33.80
2022-12-19T05:25:25.715Z,31.55
2022-12-19T05:28:14.075Z,29.58
2022-12-19T05:31:07.669Z,29.33
2022-12-19T05:33:53.104Z,28.00
2022-12-19T05:36:38.795Z,32.53
2022-12-19T05:39:24.568Z,28.33
2022-12-19T05:42:12.482Z,28.27
2022-12-19T05:44:57.941Z,30.60
2022-12-19T05:47:46.503Z,30.48
2022-12-19T05:50:33.213Z,29.38
2022-12-19T05:56:19.479Z,24.75
2022-12-19T05:59:05.083Z,24.23
2022-12-19T06:01:51.459Z,25.75
2022-12-19T06:04:37.239Z,24.52
2022-12-19T06:07:22.427Z,28.05
2022-12-19T06:10:08.212Z,24.17
2022-12-19T06:12:53.849Z,25.42
2022-12-19T06:15:39.379Z,22.45
2022-12-19T06:18:25.876Z,27.33
2022-12-19T06:21:14.454Z,25.35
2022-12-19T06:24:00.159Z,23.35
2022-12-19T06:26:46.093Z,27.23
2022-12-19T06:29:37.071Z,27.42
2022-12-19T06:32:22.319Z,27.38
2022-12-19T06:35:08.134Z,28.05
2022-12-19T06:37:59.343Z,23.40
2022-12-19T06:41:07.144Z,27.27
2022-12-19T06:43:53.817Z,24.60
2022-12-19T06:46:40.087Z,24.77
2022-12-19T06:49:26.172Z,22.92
2022-12-19T06:52:11.688Z,22.20
2022-12-19T06:54:59.853Z,24.02
2022-12-19T06:57:46.573Z,21.00
2022-12-19T07:00:36.056Z,19.42
2022-12-19T07:03:25.592Z,16.67
2022-12-19T07:06:11.226Z,18.52
2022-12-19T07:08:56.445Z,17.40
2022-12-19T07:11:41.897Z,14.63
2022-12-19T07:14:27.352Z,16.17
2022-12-19T07:17:13.427Z,15.52
2022-12-19T07:20:01.847Z,15.43
2022-12-19T07:22:48.327Z,13.65
2022-12-19T07:25:34.302Z,13.52
2022-12-19T07:28:20.078Z,13.90
2022-12-19T07:31:07.362Z,13.77
2022-12-19T07:33:52.809Z,11.98
2022-12-19T07:36:38.242Z,11.98
2022-12-19T07:39:23.817Z,10.30
2022-12-19T07:42:09.577Z,11.23
2022-12-19T07:44:57.272Z,12.68
2022-12-19T07:47:42.777Z,13.00
2022-12-19T07:50:29.502Z,12.90
2022-12-19T07:53:16.391Z,12.25
2022-12-19T07:56:03.920Z,12.68
2022-12-19T07:58:50.384Z,12.13
2022-12-19T08:01:36.022Z,11.77
2022-12-19T08:04:24.031Z,10.95
2022-12-19T08:07:09.478Z,12.10
2022-12-19T08:09:58.034Z,12.90
2022-12-19T08:12:43.389Z,13.30
2022-12-19T08:15:29.190Z,12.77
2022-12-19T08:18:17.616Z,14.25
2022-12-19T08:21:03.145Z,12.38
2022-12-19T08:23:54.256Z,14.73
2022-12-19T08:26:44.563Z,14.30
2022-12-19T08:29:33.317Z,15.23
2022-12-19T08:32:22.237Z,14.02
2022-12-19T08:35:16.854Z,13.90
2022-12-19T08:38:02.288Z,14.18
2022-12-19T08:40:54.607Z,12.73
2022-12-19T08:43:40.036Z,13.32
2022-12-19T08:46:25.291Z,14.00
2022-12-19T08:49:13.315Z,15.02
2022-12-19T08:51:58.794Z,15.15
2022-12-19T08:54:45.412Z,15.45
2022-12-19T08:57:30.887Z,14.98
2022-12-19T09:00:17.078Z,13.23
2022-12-19T09:03:05.043Z,13.75
2022-12-19T09:06:05.770Z,13.40
2022-12-19T09:09:00.149Z,13.18
2022-12-19T09:11:47.968Z,13.05
2022-12-19T09:14:37.318Z,12.55
2022-12-19T09:17:23.052Z,11.63
2022-12-19T09:20:10.748Z,12.75
2022-12-19T09:22:59.504Z,11.52
2022-12-19T09:25:44.978Z,10.98
2022-12-19T09:28:30.645Z,10.98
2022-12-19T09:31:24.321Z,11.52
2022-12-19T09:34:09.787Z,11.95
2022-12-19T09:36:55.401Z,11.07
2022-12-19T09:39:41.041Z,11.88
2022-12-19T09:42:58.497Z,12.43
2022-12-19T09:45:52.154Z,12.23
2022-12-19T09:48:37.951Z,12.77
2022-12-19T09:51:29.251Z,12.38
2022-12-19T09:54:24.442Z,12.73
2022-12-19T09:57:16.512Z,12.00
2022-12-19T10:00:06.445Z,10.52
2022-12-19T10:03:01.565Z,10.45
2022-12-19T10:06:25.887Z,11.10
2022-12-19T10:10:07.653Z,9.85
2022-12-19T10:12:52.316Z,8.60
2022-12-19T10:16:05.074Z,8.98
2022-12-19T10:18:56.508Z,8.90
2022-12-19T10:22:17.069Z,8.40
2022-12-19T10:25:25.954Z,7.60
2022-12-19T10:28:38.456Z,8.25
2022-12-19T10:31:47.550Z,7.57
2022-12-19T10:34:44.575Z,7.90
2022-12-19T10:37:48.971Z,8.05
2022-12-19T10:40:40.792Z,8.25
2022-12-19T10:43:52.359Z,7.20
2022-12-19T10:46:41.840Z,6.78
2022-12-19T10:49:29.972Z,7.20
2022-12-19T10:52:18.454Z,7.18
2022-12-19T10:55:40.587Z,6.93
2022-12-19T10:58:32.624Z,7.22
2022-12-19T11:01:28.125Z,7.53
2022-12-19T11:07:17.301Z,7.13
2022-12-19T11:10:41.959Z,7.20
2022-12-19T11:18:41.521Z,6.53
2022-12-19T11:29:18.963Z,8.02
2022-12-19T11:30:48.668Z,8.77
2022-12-19T11:31:58.447Z,8.98
2022-12-19T11:32:45.447Z,10.18
2022-12-19T11:35:45.186Z,8.48
2022-12-19T11:38:48.496Z,10.18
2022-12-19T11:41:42.108Z,9.40
2022-12-19T11:44:54.874Z,8.68
2022-12-19T11:48:09.197Z,9.70
2022-12-19T11:51:40.092Z,8.57
2022-12-19T11:55:08.715Z,7.78
2022-12-19T11:57:55.152Z,7.60
2022-12-19T12:00:58.114Z,7.57
2022-12-19T12:04:02.569Z,6.93
2022-12-19T12:06:54.915Z,7.97
2022-12-19T12:11:09.201Z,8.63
2022-12-19T12:23:38.656Z,8.65
2022-12-19T12:31:05.397Z,8.05
2022-12-19T12:31:11.208Z,7.15
2022-12-19T12:31:12.950Z,8.60
2022-12-19T12:31:58.647Z,7.53
2022-12-19T12:35:40.778Z,7.35
2022-12-19T12:38:46.685Z,6.72
2022-12-19T12:42:05.919Z,5.38
2022-12-19T12:44:55.273Z,5.70
2022-12-19T12:47:41.503Z,5.95
2022-12-19T12:50:28.209Z,5.35
2022-12-19T12:53:18.241Z,6.28
2022-12-19T12:56:07.204Z,5.50
2022-12-19T12:58:54.367Z,5.80
2022-12-19T13:01:49.668Z,5.50
2022-12-19T13:07:50.391Z,5.30
2022-12-19T13:10:36.507Z,6.40
2022-12-19T13:14:08.076Z,6.00
2022-12-19T13:16:54.310Z,6.13
2022-12-19T13:19:52.169Z,6.32
2022-12-19T13:22:40.545Z,5.72
2022-12-19T13:25:34.961Z,6.88
2022-12-19T13:28:24.900Z,5.93
2022-12-19T13:31:19.879Z,6.80
2022-12-19T13:34:16.485Z,5.75
2022-12-19T13:39:51.848Z,6.47
2022-12-19T13:40:43.147Z,5.63
2022-12-19T13:43:50.744Z,5.60
2022-12-19T13:46:39.224Z,6.22
2022-12-19T13:49:35.092Z,5.80
2022-12-19T13:52:23.012Z,5.88
2022-12-19T13:55:14.576Z,5.80
2022-12-19T13:58:04.841Z,6.32
2022-12-19T14:00:53.970Z,5.60
2022-12-19T14:03:43.278Z,5.15
2022-12-19T14:06:31.919Z,5.25
2022-12-19T14:11:27.813Z,5.22
2022-12-19T14:13:46.569Z,5.75
2022-12-19T14:16:07.480Z,5.50
2022-12-19T14:18:56.195Z,4.90
2022-12-19T14:22:10.701Z,4.80
2022-12-19T14:25:06.930Z,5.38
2022-12-19T14:28:29.121Z,4.57
2022-12-19T14:31:18.114Z,5.70
2022-12-19T14:34:35.686Z,4.53
2022-12-19T14:40:50.851Z,5.25
2022-12-19T14:44:00.497Z,4.68
2022-12-19T14:52:34.906Z,5.28
2022-12-19T14:54:15.112Z,4.43
2022-12-19T14:58:52.323Z,4.75
2022-12-19T15:01:09.715Z,4.78
2022-12-19T15:04:50.502Z,4.72
2022-12-19T15:07:30.080Z,4.45
2022-12-19T15:11:08.383Z,4.32
2022-12-19T15:14:53.232Z,5.07
2022-12-19T15:16:32.121Z,4.32
2022-12-19T15:19:17.809Z,4.85
2022-12-19T15:22:03.077Z,4.60
2022-12-19T15:24:51.750Z,4.85
2022-12-19T15:27:40.588Z,4.50
2022-12-19T15:30:30.365Z,5.18
2022-12-19T15:33:16.903Z,4.00
2022-12-19T15:36:02.829Z,4.88
2022-12-19T15:38:48.212Z,4.93
2022-12-19T15:41:33.743Z,5.43
2022-12-19T15:44:32.553Z,5.10
2022-12-19T15:47:27.034Z,5.15
2022-12-19T15:50:17.805Z,4.78
2022-12-19T15:53:20.569Z,5.03
2022-12-19T15:56:28.537Z,4.70
2022-12-19T15:59:37.814Z,4.95
2022-12-19T16:02:27.946Z,5.45
2022-12-19T16:05:26.901Z,6.57
2022-12-19T16:08:14.062Z,5.78
2022-12-19T16:11:01.707Z,5.97
2022-12-19T16:13:54.219Z,4.82
2022-12-19T16:16:40.159Z,5.38
2022-12-19T16:19:31.327Z,5.22
2022-12-19T16:22:19.886Z,4.95
2022-12-19T16:25:06.222Z,6.50
2022-12-19T16:27:56.132Z,5.22
2022-12-19T16:30:44.327Z,5.90
2022-12-19T16:33:30.809Z,6.10
2022-12-19T16:36:15.928Z,5.30
2022-12-19T16:39:01.917Z,6.00
2022-12-19T16:41:47.281Z,5.82
2022-12-19T16:44:37.525Z,5.85
2022-12-19T16:47:29.160Z,5.15
2022-12-19T16:50:24.264Z,4.88
2022-12-19T16:53:09.407Z,5.40
2022-12-19T16:55:56.629Z,4.90
2022-12-19T16:58:43.424Z,5.95
2022-12-19T17:01:29.543Z,5.65
2022-12-19T17:04:21.723Z,5.57
2022-12-19T17:07:10.565Z,5.35
2022-12-19T17:09:55.810Z,5.80
2022-12-19T17:12:46.057Z,6.55
2022-12-19T17:15:36.583Z,5.28
2022-12-19T17:18:29.921Z,5.50
2022-12-19T17:21:21.931Z,5.68
2022-12-19T17:24:13.589Z,5.25
2022-12-19T17:26:58.907Z,5.22
2022-12-19T17:29:44.595Z,5.15
2022-12-19T17:32:29.857Z,5.68
2022-12-19T17:35:28.124Z,5.97
2022-12-19T17:38:16.588Z,6.05
2022-12-19T17:41:01.922Z,5.72
2022-12-19T17:43:47.451Z,6.28
2022-12-19T17:46:36.249Z,5.95
2022-12-19T17:49:29.197Z,6.07
2022-12-19T17:52:19.973Z,6.13
2022-12-19T17:55:17.149Z,5.95
2022-12-19T17:58:02.662Z,5.30
2022-12-19T18:00:51.119Z,5.53
2022-12-19T18:03:38.965Z,5.70
2022-12-19T18:06:24.808Z,6.28
2022-12-19T18:09:18.719Z,6.25
2022-12-19T18:12:08.819Z,6.35
2022-12-19T18:14:54.666Z,6.38
2022-12-19T18:17:40.405Z,7.03
2022-12-19T18:20:31.254Z,6.55
2022-12-19T18:23:19.734Z,5.82
2022-12-19T18:26:05.496Z,5.47
2022-12-19T18:28:50.871Z,5.63
2022-12-19T18:31:37.197Z,5.57
2022-12-19T18:34:25.893Z,6.03
2022-12-19T18:37:17.396Z,5.43
2022-12-19T18:40:06.625Z,5.60
2022-12-19T18:42:52.556Z,5.28
2022-12-19T18:45:40.714Z,5.55
2022-12-19T18:48:29.094Z,5.57
2022-12-19T18:51:17.354Z,5.28
2022-12-19T18:54:02.903Z,5.90
2022-12-19T18:56:48.497Z,5.47
2022-12-19T18:59:34.165Z,5.03
2022-12-19T19:02:29.467Z,5.22
2022-12-19T19:05:25.229Z,5.65
2022-12-19T19:08:20.442Z,5.78
2022-12-19T19:11:25.070Z,5.13
2022-12-19T19:14:11.464Z,6.65
2022-12-19T19:16:57.064Z,6.68
2022-12-19T19:19:45.385Z,5.72
2022-12-19T19:22:31.184Z,5.68
2022-12-19T19:25:17.515Z,5.47
2022-12-19T19:28:06.929Z,6.50
2022-12-19T19:30:52.807Z,5.90
2022-12-19T19:33:42.910Z,5.70
2022-12-19T19:36:31.062Z,5.38
2022-12-19T19:39:17.469Z,5.40
2022-12-19T19:42:03.218Z,5.60
2022-12-19T19:44:51.618Z,5.43
2022-12-19T19:47:37.439Z,5.18
2022-12-19T19:50:24.575Z,5.60
2022-12-19T19:53:11.930Z,6.28
2022-12-19T19:56:00.828Z,5.50
2022-12-19T19:58:46.184Z,5.82
2022-12-19T20:01:31.903Z,5.53
2022-12-19T20:04:17.436Z,6.88
2022-12-19T20:07:04.480Z,5.72
2022-12-19T20:09:50.327Z,5.80
2022-12-19T20:12:35.756Z,5.97
2022-12-19T20:15:21.114Z,5.15
2022-12-19T20:18:06.565Z,5.32
2022-12-19T20:20:52.115Z,5.30
2022-12-19T20:23:38.505Z,5.63
2022-12-19T20:26:24.080Z,5.45
2022-12-19T20:29:14.128Z,5.35
2022-12-19T20:31:59.778Z,4.85
2022-12-19T20:34:45.431Z,6.18
2022-12-19T20:37:30.870Z,5.60
2022-12-19T20:40:16.658Z,5.43
2022-12-19T20:43:02.211Z,5.63
2022-12-19T20:45:47.608Z,5.22
2022-12-19T20:48:33.879Z,5.22
2022-12-19T20:51:20.594Z,5.10
2022-12-19T20:54:08.635Z,6.00
2022-12-19T20:56:54.204Z,5.60
2022-12-19T20:59:39.905Z,5.40
2022-12-19T21:02:25.748Z,5.72
2022-12-19T21:05:11.894Z,5.28
2022-12-19T21:08:01.315Z,5.00
2022-12-19T21:10:47.109Z,5.47
2022-12-19T21:13:32.550Z,5.50
2022-12-19T21:16:20.280Z,5.13
2022-12-19T21:19:06.039Z,5.57
2022-12-19T21:21:51.352Z,5.57
2022-12-19T21:24:42.779Z,5.43
2022-12-19T21:27:28.182Z,5.22
2022-12-19T21:30:18.852Z,4.55
2022-12-19T21:33:08.379Z,5.05
2022-12-19T21:35:53.993Z,5.00
2022-12-19T21:38:43.032Z,4.90
2022-12-19T21:41:29.328Z,4.53
2022-12-19T21:44:14.850Z,5.07
2022-12-19T21:47:00.289Z,5.43
2022-12-19T21:49:45.695Z,4.65
2022-12-19T21:52:31.018Z,6.00
2022-12-19T21:55:16.502Z,5.70
2022-12-19T21:58:01.748Z,5.00
2022-12-19T22:00:47.525Z,4.97
2022-12-19T22:03:33.239Z,5.03
2022-12-19T22:06:28.278Z,5.00
2022-12-19T22:09:16.654Z,5.28
2022-12-19T22:12:02.529Z,5.05
2022-12-19T22:14:48.357Z,4.68
2022-12-19T22:17:36.391Z,5.18
2022-12-19T22:20:22.553Z,4.95
2022-12-19T22:23:12.930Z,4.03
2022-12-19T22:26:06.342Z,4.93
2022-12-19T22:28:54.553Z,5.25
2022-12-19T22:31:40.867Z,5.45
2022-12-19T22:34:26.578Z,5.13
2022-12-19T22:37:12.043Z,4.70
2022-12-19T22:40:00.263Z,5.00
2022-12-19T22:42:46.128Z,5.45
2022-12-19T22:45:31.577Z,5.50
2022-12-19T22:48:17.216Z,5.50
2022-12-19T22:51:02.740Z,5.05
2022-12-19T22:53:54.356Z,4.68
2022-12-19T22:56:41.079Z,5.20
2022-12-19T22:59:26.447Z,5.65
2022-12-19T23:02:12.463Z,4.82
2022-12-19T23:05:00.104Z,4.95
2022-12-19T23:07:45.460Z,5.20
2022-12-19T23:10:31.277Z,5.90
2022-12-19T23:13:21.133Z,5.10
2022-12-19T23:16:07.395Z,5.38
2022-12-19T23:18:53.113Z,5.72
2022-12-19T23:21:39.005Z,5.18
2022-12-19T23:24:24.767Z,4.95
2022-12-19T23:27:11.661Z,5.10
2022-12-19T23:29:57.191Z,4.70
2022-12-19T23:32:48.739Z,5.78
2022-12-19T23:35:35.801Z,5.00
2022-12-19T23:38:21.181Z,4.93
2022-12-19T23:41:10.910Z,5.50
2022-12-19T23:43:56.634Z,5.25
2022-12-19T23:46:42.139Z,5.28
2022-12-19T23:49:27.714Z,5.45
2022-12-19T23:52:13.070Z,4.85
2022-12-19T23:54:58.233Z,5.07
2022-12-19T23:57:44.139Z,4.88
